COOK73 ULAA-LFRC
Flight info
| Callsign | COOK73 |
|---|---|
| Flight time | 4h 18m |
| Altitude | 36000 |
| Route | MAGEM3K MAGEM N746 BEBDA N742 ASNOD M57 AGAMO/N0438F360 DCT EROKU DCT NEBAB DCT UXETI DCT TIPIX N872 ERNOV DCT LASGI N872 PAM L980 IDRID M40 NILON L610 GILDA L620 MID L980 AVANT |
| Aircraft | C25C/M-SDE2E3FGHRWXY/LB1 |
Departure
| Time | 2026-04-13 18:48 |
|---|---|
| Airport | Talagi Airport (ULAA) |
Arrival
| Time | 2026-04-13 23:06 |
|---|---|
| Airport | Cherbourg Manche airport (LFRC) |
| Time | Latitude | Longitude | Altitude | Speed | Heading |
|---|---|---|---|---|---|
| 2026-04-13 18:21 | 64.59679 | 40.71219 | 43 ft | 0 kts | 196° |
| 2026-04-13 18:34 | 64.59703 | 40.71236 | 43 ft | 6 kts | 197° |
| 2026-04-13 18:34 | 64.59722 | 40.71254 | 43 ft | 2 kts | 219° |
| 2026-04-13 18:34 | 64.59727 | 40.71277 | 43 ft | 2 kts | 274° |
| 2026-04-13 18:34 | 64.59726 | 40.71290 | 43 ft | 0 kts | 280° |
| 2026-04-13 18:35 | 64.59727 | 40.71279 | 43 ft | 2 kts | 275° |
| 2026-04-13 18:36 | 64.59730 | 40.71206 | 43 ft | 5 kts | 278° |
| 2026-04-13 18:36 | 64.59755 | 40.71151 | 43 ft | 5 kts | 352° |
| 2026-04-13 18:36 | 64.59790 | 40.71156 | 43 ft | 5 kts | 5° |
| 2026-04-13 18:36 | 64.59825 | 40.71159 | 43 ft | 5 kts | 350° |
| 2026-04-13 18:37 | 64.59841 | 40.71125 | 42 ft | 5 kts | 292° |
| 2026-04-13 18:37 | 64.59848 | 40.71018 | 42 ft | 5 kts | 277° |
| 2026-04-13 18:37 | 64.59853 | 40.70927 | 42 ft | 6 kts | 276° |
| 2026-04-13 18:37 | 64.59857 | 40.70828 | 42 ft | 6 kts | 276° |
| 2026-04-13 18:38 | 64.59863 | 40.70721 | 41 ft | 7 kts | 276° |
| 2026-04-13 18:38 | 64.59868 | 40.70607 | 41 ft | 7 kts | 276° |
| 2026-04-13 18:38 | 64.59874 | 40.70486 | 40 ft | 8 kts | 276° |
| 2026-04-13 18:38 | 64.59880 | 40.70358 | 40 ft | 8 kts | 276° |
| 2026-04-13 18:39 | 64.59887 | 40.70226 | 40 ft | 8 kts | 276° |
| 2026-04-13 18:39 | 64.59876 | 40.70167 | 40 ft | 3 kts | 114° |
| 2026-04-13 18:39 | 64.59880 | 40.70220 | 40 ft | 5 kts | 76° |
| 2026-04-13 18:39 | 64.59883 | 40.70298 | 40 ft | 5 kts | 93° |
| 2026-04-13 18:40 | 64.59880 | 40.70379 | 40 ft | 5 kts | 95° |
| 2026-04-13 18:40 | 64.59875 | 40.70463 | 40 ft | 6 kts | 97° |
| 2026-04-13 18:40 | 64.59869 | 40.70588 | 41 ft | 10 kts | 96° |
| 2026-04-13 18:40 | 64.59860 | 40.70774 | 41 ft | 13 kts | 97° |
| 2026-04-13 18:41 | 64.59850 | 40.70981 | 42 ft | 12 kts | 96° |
| 2026-04-13 18:41 | 64.59840 | 40.71174 | 43 ft | 12 kts | 96° |
| 2026-04-13 18:41 | 64.59832 | 40.71359 | 43 ft | 11 kts | 95° |
| 2026-04-13 18:41 | 64.59823 | 40.71532 | 44 ft | 11 kts | 98° |
| 2026-04-13 18:42 | 64.59815 | 40.71699 | 44 ft | 10 kts | 96° |
| 2026-04-13 18:42 | 64.59807 | 40.71857 | 45 ft | 10 kts | 97° |
| 2026-04-13 18:42 | 64.59799 | 40.72007 | 45 ft | 9 kts | 96° |
| 2026-04-13 18:42 | 64.59792 | 40.72153 | 46 ft | 9 kts | 96° |
| 2026-04-13 18:43 | 64.59785 | 40.72300 | 46 ft | 9 kts | 96° |
| 2026-04-13 18:43 | 64.59777 | 40.72448 | 46 ft | 9 kts | 96° |
| 2026-04-13 18:43 | 64.59770 | 40.72597 | 47 ft | 9 kts | 96° |
| 2026-04-13 18:43 | 64.59763 | 40.72748 | 47 ft | 9 kts | 96° |
| 2026-04-13 18:44 | 64.59756 | 40.72899 | 48 ft | 9 kts | 96° |
| 2026-04-13 18:44 | 64.59749 | 40.73052 | 48 ft | 10 kts | 96° |
| 2026-04-13 18:44 | 64.59742 | 40.73206 | 49 ft | 10 kts | 97° |
| 2026-04-13 18:44 | 64.59734 | 40.73361 | 49 ft | 10 kts | 97° |
| 2026-04-13 18:45 | 64.59726 | 40.73516 | 50 ft | 10 kts | 97° |
| 2026-04-13 18:45 | 64.59715 | 40.73671 | 50 ft | 10 kts | 105° |
| 2026-04-13 18:45 | 64.59703 | 40.73825 | 51 ft | 9 kts | 97° |
| 2026-04-13 18:45 | 64.59696 | 40.73972 | 51 ft | 9 kts | 95° |
| 2026-04-13 18:46 | 64.59690 | 40.74110 | 52 ft | 8 kts | 94° |
| 2026-04-13 18:46 | 64.59723 | 40.74186 | 52 ft | 7 kts | 9° |
| 2026-04-13 18:46 | 64.59770 | 40.74200 | 52 ft | 7 kts | 6° |
| 2026-04-13 18:46 | 64.59818 | 40.74211 | 50 ft | 7 kts | 5° |
| 2026-04-13 18:47 | 64.59865 | 40.74220 | 52 ft | 7 kts | 2° |
| 2026-04-13 18:47 | 64.59903 | 40.74173 | 51 ft | 7 kts | 296° |
| 2026-04-13 18:47 | 64.59916 | 40.73995 | 49 ft | 26 kts | 277° |
| 2026-04-13 18:47 | 64.59968 | 40.72899 | 50 ft | 110 kts | 275° |
| 2026-04-13 18:48 | 64.59986 | 40.70789 | 539 ft | 138 kts | 268° |
| 2026-04-13 18:48 | 64.60044 | 40.68388 | 1213 ft | 165 kts | 289° |
| 2026-04-13 18:48 | 64.60325 | 40.65529 | 1927 ft | 195 kts | 283° |
| 2026-04-13 18:48 | 64.60480 | 40.62340 | 3128 ft | 197 kts | 280° |
| 2026-04-13 18:49 | 64.60637 | 40.59152 | 4289 ft | 200 kts | 281° |
| 2026-04-13 18:49 | 64.60785 | 40.55883 | 5375 ft | 205 kts | 281° |
| 2026-04-13 18:49 | 64.60947 | 40.52551 | 6426 ft | 209 kts | 280° |
| 2026-04-13 18:49 | 64.61112 | 40.49145 | 7412 ft | 214 kts | 279° |
| 2026-04-13 18:50 | 64.61054 | 40.45644 | 8371 ft | 224 kts | 252° |
| 2026-04-13 18:50 | 64.60401 | 40.42294 | 9356 ft | 229 kts | 248° |
| 2026-04-13 18:50 | 64.59744 | 40.38881 | 10357 ft | 233 kts | 246° |
| 2026-04-13 18:50 | 64.59055 | 40.35421 | 11252 ft | 238 kts | 246° |
| 2026-04-13 18:51 | 64.58351 | 40.31860 | 12133 ft | 245 kts | 246° |
| 2026-04-13 18:51 | 64.57634 | 40.28214 | 13022 ft | 251 kts | 246° |
| 2026-04-13 18:51 | 64.56895 | 40.24478 | 13900 ft | 257 kts | 246° |
| 2026-04-13 18:51 | 64.56151 | 40.20705 | 14699 ft | 262 kts | 246° |
| 2026-04-13 18:52 | 64.55371 | 40.16779 | 15519 ft | 265 kts | 246° |
| 2026-04-13 18:52 | 64.54678 | 40.13296 | 16251 ft | 268 kts | 246° |
| 2026-04-13 18:52 | 64.54291 | 40.11350 | 16609 ft | 270 kts | 246° |
| 2026-04-13 18:52 | 64.53498 | 40.07360 | 17427 ft | 273 kts | 246° |
| 2026-04-13 18:53 | 64.52694 | 40.03338 | 18286 ft | 276 kts | 246° |
| 2026-04-13 18:53 | 64.51880 | 39.99268 | 19085 ft | 280 kts | 246° |
| 2026-04-13 18:53 | 64.51052 | 39.95134 | 19838 ft | 283 kts | 246° |
| 2026-04-13 18:53 | 64.50215 | 39.90965 | 20623 ft | 287 kts | 246° |
| 2026-04-13 18:54 | 64.49364 | 39.86743 | 21418 ft | 291 kts | 246° |
| 2026-04-13 18:54 | 64.48504 | 39.82465 | 22226 ft | 295 kts | 246° |
| 2026-04-13 18:54 | 64.47630 | 39.78138 | 23021 ft | 299 kts | 246° |
| 2026-04-13 18:54 | 64.46738 | 39.73743 | 23807 ft | 303 kts | 246° |
| 2026-04-13 18:55 | 64.45837 | 39.69300 | 24488 ft | 306 kts | 245° |
| 2026-04-13 18:55 | 64.44926 | 39.64811 | 25116 ft | 309 kts | 245° |
| 2026-04-13 18:55 | 64.44002 | 39.60285 | 25729 ft | 312 kts | 245° |
| 2026-04-13 18:55 | 64.43069 | 39.55713 | 26339 ft | 316 kts | 245° |
| 2026-04-13 18:56 | 64.42125 | 39.51100 | 26944 ft | 319 kts | 245° |
| 2026-04-13 18:56 | 64.41168 | 39.46441 | 27553 ft | 322 kts | 245° |
| 2026-04-13 18:56 | 64.40204 | 39.41748 | 28143 ft | 325 kts | 244° |
| 2026-04-13 18:56 | 64.39227 | 39.37000 | 28700 ft | 328 kts | 244° |
| 2026-04-13 18:57 | 64.38254 | 39.32297 | 29323 ft | 329 kts | 244° |
| 2026-04-13 18:57 | 64.37270 | 39.27539 | 29978 ft | 328 kts | 244° |
| 2026-04-13 18:57 | 64.36286 | 39.22794 | 30601 ft | 327 kts | 244° |
| 2026-04-13 18:57 | 64.35302 | 39.18064 | 31122 ft | 326 kts | 244° |
| 2026-04-13 18:58 | 64.34319 | 39.13348 | 31650 ft | 325 kts | 244° |
| 2026-04-13 18:58 | 64.33341 | 39.08662 | 32157 ft | 324 kts | 244° |
| 2026-04-13 18:58 | 64.32362 | 39.03990 | 32662 ft | 323 kts | 244° |
| 2026-04-13 18:58 | 64.31386 | 38.99334 | 33156 ft | 322 kts | 244° |
| 2026-04-13 18:59 | 64.30410 | 38.94695 | 33644 ft | 321 kts | 244° |
| 2026-04-13 18:59 | 64.29436 | 38.90072 | 34118 ft | 320 kts | 244° |
| 2026-04-13 18:59 | 64.28463 | 38.85465 | 34558 ft | 320 kts | 244° |
| 2026-04-13 18:59 | 64.27489 | 38.80865 | 34925 ft | 319 kts | 244° |
| 2026-04-13 19:00 | 64.26862 | 38.77817 | 35156 ft | 319 kts | 247° |
| 2026-04-13 19:00 | 64.25754 | 38.71482 | 35640 ft | 318 kts | 248° |
| 2026-04-13 19:00 | 64.24925 | 38.66776 | 36019 ft | 317 kts | 248° |
| 2026-04-13 19:00 | 64.24083 | 38.62076 | 36355 ft | 319 kts | 248° |
| 2026-04-13 19:01 | 64.23232 | 38.57295 | 36464 ft | 329 kts | 248° |
| 2026-04-13 19:01 | 64.22352 | 38.52348 | 36494 ft | 340 kts | 248° |
| 2026-04-13 19:01 | 64.21438 | 38.47235 | 36505 ft | 352 kts | 248° |
| 2026-04-13 19:01 | 64.20488 | 38.41935 | 36503 ft | 364 kts | 248° |
| 2026-04-13 19:02 | 64.19507 | 38.36479 | 36508 ft | 375 kts | 248° |
| 2026-04-13 19:02 | 64.18497 | 38.30874 | 36507 ft | 385 kts | 248° |
| 2026-04-13 19:02 | 64.16390 | 38.19243 | 36506 ft | 403 kts | 247° |
| 2026-04-13 19:03 | 64.14189 | 38.07155 | 36504 ft | 417 kts | 247° |
| 2026-04-13 19:03 | 64.11946 | 37.94897 | 36502 ft | 422 kts | 247° |
| 2026-04-13 19:04 | 64.09647 | 37.82454 | 36502 ft | 427 kts | 247° |
| 2026-04-13 19:04 | 64.07314 | 37.69880 | 36505 ft | 431 kts | 247° |
| 2026-04-13 19:05 | 64.04948 | 37.57217 | 36499 ft | 435 kts | 247° |
| 2026-04-13 19:05 | 64.02555 | 37.44478 | 36502 ft | 438 kts | 246° |
| 2026-04-13 19:06 | 64.00134 | 37.31676 | 36501 ft | 441 kts | 246° |
| 2026-04-13 19:06 | 63.97689 | 37.18831 | 36503 ft | 443 kts | 246° |
| 2026-04-13 19:07 | 63.95220 | 37.05948 | 36505 ft | 444 kts | 246° |
| 2026-04-13 19:07 | 63.92735 | 36.93064 | 36508 ft | 446 kts | 246° |
| 2026-04-13 19:08 | 63.90504 | 36.80010 | 36505 ft | 447 kts | 256° |
| 2026-04-13 19:08 | 63.89330 | 36.66152 | 36506 ft | 448 kts | 260° |
| 2026-04-13 19:09 | 63.88193 | 36.52232 | 36507 ft | 449 kts | 260° |
| 2026-04-13 19:09 | 63.87242 | 36.40541 | 36507 ft | 450 kts | 260° |
| 2026-04-13 19:10 | 63.86104 | 36.26752 | 36509 ft | 451 kts | 259° |
| 2026-04-13 19:10 | 63.84938 | 36.12771 | 36506 ft | 452 kts | 259° |
| 2026-04-13 19:11 | 63.83763 | 35.98881 | 36505 ft | 452 kts | 259° |
| 2026-04-13 19:11 | 63.82564 | 35.84877 | 36506 ft | 453 kts | 259° |
| 2026-04-13 19:12 | 63.81350 | 35.70861 | 36510 ft | 454 kts | 259° |
| 2026-04-13 19:12 | 63.80124 | 35.56870 | 36509 ft | 453 kts | 259° |
| 2026-04-13 19:13 | 63.78887 | 35.42914 | 36506 ft | 452 kts | 259° |
| 2026-04-13 19:13 | 63.77642 | 35.29003 | 36507 ft | 451 kts | 259° |
| 2026-04-13 19:14 | 63.76399 | 35.15127 | 36505 ft | 451 kts | 258° |
| 2026-04-13 19:14 | 63.75135 | 35.01254 | 36504 ft | 450 kts | 258° |
| 2026-04-13 19:15 | 63.73865 | 34.87413 | 36505 ft | 450 kts | 258° |
| 2026-04-13 19:15 | 63.72579 | 34.73590 | 36505 ft | 450 kts | 258° |
| 2026-04-13 19:16 | 63.71290 | 34.59887 | 36504 ft | 449 kts | 258° |
| 2026-04-13 19:16 | 63.69979 | 34.46103 | 36503 ft | 449 kts | 258° |
| 2026-04-13 19:17 | 63.68656 | 34.32328 | 36506 ft | 450 kts | 258° |
| 2026-04-13 19:17 | 63.67319 | 34.18565 | 36505 ft | 450 kts | 257° |
| 2026-04-13 19:18 | 63.65968 | 34.04806 | 36506 ft | 450 kts | 257° |
| 2026-04-13 19:18 | 63.64605 | 33.91065 | 36509 ft | 450 kts | 257° |
| 2026-04-13 19:19 | 63.63229 | 33.77357 | 36509 ft | 450 kts | 257° |
| 2026-04-13 19:19 | 63.61836 | 33.63623 | 36511 ft | 450 kts | 257° |
| 2026-04-13 19:20 | 63.60433 | 33.49916 | 36513 ft | 450 kts | 257° |
| 2026-04-13 19:20 | 63.59016 | 33.36209 | 36517 ft | 450 kts | 257° |
| 2026-04-13 19:21 | 63.57586 | 33.22525 | 36517 ft | 450 kts | 256° |
| 2026-04-13 19:21 | 63.56141 | 33.08853 | 36515 ft | 450 kts | 256° |
| 2026-04-13 19:22 | 63.54687 | 32.95201 | 36520 ft | 450 kts | 256° |
| 2026-04-13 19:22 | 63.53156 | 32.81598 | 36516 ft | 450 kts | 251° |
| 2026-04-13 19:23 | 63.50487 | 32.68959 | 36517 ft | 449 kts | 240° |
| 2026-04-13 19:23 | 63.47527 | 32.56757 | 36523 ft | 449 kts | 240° |
| 2026-04-13 19:24 | 63.44521 | 32.44510 | 36523 ft | 449 kts | 240° |
| 2026-04-13 19:24 | 63.41508 | 32.32286 | 36524 ft | 450 kts | 240° |
| 2026-04-13 19:25 | 63.38481 | 32.20073 | 36524 ft | 450 kts | 240° |
| 2026-04-13 19:25 | 63.35441 | 32.07875 | 36525 ft | 450 kts | 240° |
| 2026-04-13 19:26 | 63.32390 | 31.95696 | 36529 ft | 450 kts | 240° |
| 2026-04-13 19:26 | 63.29322 | 31.83556 | 36528 ft | 450 kts | 239° |
| 2026-04-13 19:27 | 63.26242 | 31.71442 | 36525 ft | 450 kts | 239° |
| 2026-04-13 19:27 | 63.23153 | 31.59357 | 36529 ft | 450 kts | 239° |
| 2026-04-13 19:28 | 63.20050 | 31.47290 | 36531 ft | 450 kts | 239° |
| 2026-04-13 19:28 | 63.16934 | 31.35231 | 36534 ft | 451 kts | 239° |
| 2026-04-13 19:29 | 63.13971 | 31.23023 | 36530 ft | 451 kts | 246° |
| 2026-04-13 19:29 | 63.11453 | 31.10412 | 36532 ft | 451 kts | 245° |
| 2026-04-13 19:30 | 63.08898 | 30.97745 | 36532 ft | 451 kts | 245° |
| 2026-04-13 19:30 | 63.06338 | 30.85095 | 36531 ft | 451 kts | 245° |
| 2026-04-13 19:31 | 63.03762 | 30.72477 | 36534 ft | 451 kts | 245° |
| 2026-04-13 19:31 | 63.01204 | 30.59998 | 36540 ft | 451 kts | 245° |
| 2026-04-13 19:32 | 62.98607 | 30.47419 | 36537 ft | 452 kts | 245° |
| 2026-04-13 19:32 | 62.96000 | 30.34857 | 36538 ft | 452 kts | 245° |
| 2026-04-13 19:33 | 62.93382 | 30.22327 | 36536 ft | 451 kts | 245° |
| 2026-04-13 19:34 | 62.89432 | 30.03561 | 36532 ft | 451 kts | 244° |
| 2026-04-13 19:34 | 62.86787 | 29.91082 | 36529 ft | 451 kts | 244° |
| 2026-04-13 19:35 | 62.84129 | 29.78627 | 36527 ft | 451 kts | 244° |
| 2026-04-13 19:35 | 62.81463 | 29.66203 | 36522 ft | 451 kts | 244° |
| 2026-04-13 19:36 | 62.78806 | 29.53888 | 36522 ft | 451 kts | 244° |
| 2026-04-13 19:36 | 62.76119 | 29.41510 | 36521 ft | 451 kts | 244° |
| 2026-04-13 19:37 | 62.73421 | 29.29155 | 36522 ft | 451 kts | 244° |
| 2026-04-13 19:37 | 62.70713 | 29.16827 | 36527 ft | 451 kts | 244° |
| 2026-04-13 19:38 | 62.67995 | 29.04530 | 36530 ft | 451 kts | 244° |
| 2026-04-13 19:38 | 62.65266 | 28.92245 | 36536 ft | 451 kts | 244° |
| 2026-04-13 19:39 | 62.62528 | 28.79999 | 36538 ft | 450 kts | 243° |
| 2026-04-13 19:39 | 62.59780 | 28.67778 | 36536 ft | 450 kts | 243° |
| 2026-04-13 19:40 | 62.57023 | 28.55584 | 36537 ft | 450 kts | 243° |
| 2026-04-13 19:40 | 62.54254 | 28.43411 | 36538 ft | 450 kts | 243° |
| 2026-04-13 19:41 | 62.51480 | 28.31273 | 36539 ft | 450 kts | 243° |
| 2026-04-13 19:41 | 62.48692 | 28.19149 | 36542 ft | 450 kts | 243° |
| 2026-04-13 19:42 | 62.44492 | 28.01020 | 36538 ft | 450 kts | 243° |
| 2026-04-13 19:42 | 62.41701 | 27.89043 | 36535 ft | 449 kts | 243° |
| 2026-04-13 19:43 | 62.38877 | 27.77006 | 36537 ft | 449 kts | 243° |
| 2026-04-13 19:43 | 62.36046 | 27.65002 | 36537 ft | 449 kts | 243° |
| 2026-04-13 19:44 | 62.33203 | 27.53017 | 36536 ft | 449 kts | 243° |
| 2026-04-13 19:44 | 62.30354 | 27.41064 | 36537 ft | 449 kts | 243° |
| 2026-04-13 19:45 | 62.27492 | 27.29124 | 36534 ft | 449 kts | 243° |
| 2026-04-13 19:45 | 62.24622 | 27.17216 | 36533 ft | 449 kts | 243° |
| 2026-04-13 19:46 | 62.21762 | 27.05424 | 36537 ft | 448 kts | 242° |
| 2026-04-13 19:46 | 62.18876 | 26.93578 | 36539 ft | 448 kts | 242° |
| 2026-04-13 19:47 | 62.15980 | 26.81759 | 36536 ft | 448 kts | 242° |
| 2026-04-13 19:47 | 62.13075 | 26.69967 | 36535 ft | 448 kts | 242° |
| 2026-04-13 19:48 | 62.10159 | 26.58192 | 36531 ft | 448 kts | 242° |
| 2026-04-13 19:48 | 62.07236 | 26.46450 | 36527 ft | 448 kts | 242° |
| 2026-04-13 19:49 | 62.04307 | 26.34744 | 36528 ft | 447 kts | 242° |
| 2026-04-13 19:49 | 62.01373 | 26.23057 | 36529 ft | 447 kts | 242° |
| 2026-04-13 19:50 | 61.98523 | 26.11469 | 36528 ft | 447 kts | 243° |
| 2026-04-13 19:50 | 61.95603 | 25.99807 | 36527 ft | 447 kts | 242° |
| 2026-04-13 19:51 | 61.92704 | 25.88232 | 36523 ft | 447 kts | 242° |
| 2026-04-13 19:51 | 61.89773 | 25.76614 | 36523 ft | 446 kts | 242° |
| 2026-04-13 19:52 | 61.86836 | 25.65021 | 36523 ft | 446 kts | 242° |
| 2026-04-13 19:52 | 61.83890 | 25.53456 | 36521 ft | 446 kts | 242° |
| 2026-04-13 19:53 | 61.80935 | 25.41924 | 36521 ft | 446 kts | 242° |
| 2026-04-13 19:53 | 61.77975 | 25.30421 | 36522 ft | 446 kts | 242° |
| 2026-04-13 19:54 | 61.75004 | 25.18936 | 36519 ft | 445 kts | 242° |
| 2026-04-13 19:54 | 61.72024 | 25.07483 | 36517 ft | 445 kts | 242° |
| 2026-04-13 19:55 | 61.69037 | 24.96060 | 36516 ft | 445 kts | 242° |
| 2026-04-13 19:55 | 61.66045 | 24.84666 | 36510 ft | 444 kts | 242° |
| 2026-04-13 19:56 | 61.63553 | 24.75228 | 36511 ft | 444 kts | 242° |
| 2026-04-13 19:56 | 61.60550 | 24.63904 | 36511 ft | 443 kts | 242° |
| 2026-04-13 19:57 | 61.57537 | 24.52610 | 36509 ft | 443 kts | 242° |
| 2026-04-13 19:57 | 61.54530 | 24.41347 | 36504 ft | 442 kts | 242° |
| 2026-04-13 19:58 | 61.51501 | 24.30138 | 36506 ft | 441 kts | 241° |
| 2026-04-13 19:58 | 61.48478 | 24.18962 | 36505 ft | 441 kts | 242° |
| 2026-04-13 19:59 | 61.45451 | 24.07827 | 36508 ft | 440 kts | 241° |
| 2026-04-13 19:59 | 61.42416 | 23.96729 | 36506 ft | 440 kts | 242° |
| 2026-04-13 20:00 | 61.39376 | 23.85651 | 36505 ft | 439 kts | 241° |
| 2026-04-13 20:00 | 61.36329 | 23.74615 | 36506 ft | 439 kts | 241° |
| 2026-04-13 20:01 | 61.33277 | 23.63615 | 36501 ft | 438 kts | 241° |
| 2026-04-13 20:01 | 61.30243 | 23.52725 | 36503 ft | 437 kts | 241° |
| 2026-04-13 20:02 | 61.27185 | 23.41801 | 36499 ft | 437 kts | 241° |
| 2026-04-13 20:02 | 61.24114 | 23.30885 | 36502 ft | 436 kts | 241° |
| 2026-04-13 20:03 | 61.21043 | 23.20024 | 36505 ft | 436 kts | 241° |
| 2026-04-13 20:03 | 61.17969 | 23.09203 | 36504 ft | 435 kts | 240° |
| 2026-04-13 20:04 | 61.14891 | 22.98418 | 36507 ft | 434 kts | 240° |
| 2026-04-13 20:04 | 61.11810 | 22.87680 | 36502 ft | 434 kts | 240° |
| 2026-04-13 20:05 | 61.08595 | 22.77115 | 36499 ft | 434 kts | 238° |
| 2026-04-13 20:05 | 61.05337 | 22.66629 | 36500 ft | 433 kts | 239° |
| 2026-04-13 20:06 | 61.02067 | 22.56186 | 36500 ft | 433 kts | 238° |
| 2026-04-13 20:06 | 60.98796 | 22.45783 | 36497 ft | 432 kts | 239° |
| 2026-04-13 20:07 | 60.95539 | 22.35463 | 36495 ft | 432 kts | 239° |
| 2026-04-13 20:07 | 60.92259 | 22.25123 | 36493 ft | 431 kts | 239° |
| 2026-04-13 20:08 | 60.88974 | 22.14808 | 36492 ft | 431 kts | 239° |
| 2026-04-13 20:08 | 60.85685 | 22.04531 | 36492 ft | 430 kts | 239° |
| 2026-04-13 20:09 | 60.82392 | 21.94293 | 36492 ft | 430 kts | 239° |
| 2026-04-13 20:09 | 60.79097 | 21.84082 | 36496 ft | 429 kts | 239° |
| 2026-04-13 20:10 | 60.75796 | 21.73900 | 36490 ft | 429 kts | 239° |
| 2026-04-13 20:10 | 60.72488 | 21.63743 | 36488 ft | 429 kts | 239° |
| 2026-04-13 20:11 | 60.69177 | 21.53621 | 36487 ft | 428 kts | 239° |
| 2026-04-13 20:11 | 60.65859 | 21.43527 | 36489 ft | 428 kts | 239° |
| 2026-04-13 20:12 | 60.62540 | 21.33468 | 36488 ft | 427 kts | 239° |
| 2026-04-13 20:12 | 60.59238 | 21.23501 | 36488 ft | 427 kts | 239° |
| 2026-04-13 20:13 | 60.55915 | 21.13517 | 36489 ft | 426 kts | 239° |
| 2026-04-13 20:13 | 60.52586 | 21.03553 | 36488 ft | 426 kts | 239° |
| 2026-04-13 20:14 | 60.49255 | 20.93640 | 36486 ft | 425 kts | 239° |
| 2026-04-13 20:14 | 60.45921 | 20.83746 | 36485 ft | 424 kts | 239° |
| 2026-04-13 20:15 | 60.42589 | 20.73905 | 36487 ft | 423 kts | 238° |
| 2026-04-13 20:15 | 60.39257 | 20.64102 | 36485 ft | 422 kts | 238° |
| 2026-04-13 20:16 | 60.35918 | 20.54328 | 36487 ft | 422 kts | 238° |
| 2026-04-13 20:16 | 60.32579 | 20.44591 | 36485 ft | 421 kts | 238° |
| 2026-04-13 20:17 | 60.29266 | 20.34968 | 36478 ft | 420 kts | 238° |
| 2026-04-13 20:17 | 60.25933 | 20.25321 | 36479 ft | 419 kts | 238° |
| 2026-04-13 20:18 | 60.22600 | 20.15719 | 36473 ft | 418 kts | 238° |
| 2026-04-13 20:18 | 60.19267 | 20.06159 | 36472 ft | 417 kts | 238° |
| 2026-04-13 20:19 | 60.15934 | 19.96640 | 36471 ft | 416 kts | 238° |
| 2026-04-13 20:19 | 60.12701 | 19.87390 | 36473 ft | 415 kts | 239° |
| 2026-04-13 20:20 | 60.09492 | 19.77818 | 36475 ft | 413 kts | 239° |
| 2026-04-13 20:20 | 60.06234 | 19.68336 | 36474 ft | 412 kts | 238° |
| 2026-04-13 20:21 | 60.03002 | 19.58890 | 36473 ft | 411 kts | 238° |
| 2026-04-13 20:21 | 59.99761 | 19.49491 | 36472 ft | 410 kts | 238° |
| 2026-04-13 20:22 | 59.96520 | 19.40119 | 36468 ft | 409 kts | 238° |
| 2026-04-13 20:22 | 59.93285 | 19.30802 | 36471 ft | 408 kts | 238° |
| 2026-04-13 20:23 | 59.90050 | 19.21516 | 36467 ft | 407 kts | 238° |
| 2026-04-13 20:23 | 59.86834 | 19.12325 | 36463 ft | 407 kts | 238° |
| 2026-04-13 20:24 | 59.83596 | 19.03111 | 36464 ft | 406 kts | 237° |
| 2026-04-13 20:24 | 59.80355 | 18.93924 | 36464 ft | 406 kts | 237° |
| 2026-04-13 20:25 | 59.77111 | 18.84761 | 36460 ft | 405 kts | 237° |
| 2026-04-13 20:25 | 59.73861 | 18.75618 | 36457 ft | 405 kts | 237° |
| 2026-04-13 20:26 | 59.70605 | 18.66494 | 36458 ft | 405 kts | 237° |
| 2026-04-13 20:26 | 59.67350 | 18.57406 | 36452 ft | 405 kts | 237° |
| 2026-04-13 20:27 | 59.64087 | 18.48336 | 36446 ft | 404 kts | 237° |
| 2026-04-13 20:27 | 59.60892 | 18.39484 | 36455 ft | 404 kts | 237° |
| 2026-04-13 20:28 | 59.57623 | 18.30465 | 36447 ft | 404 kts | 237° |
| 2026-04-13 20:28 | 59.54345 | 18.21452 | 36450 ft | 404 kts | 236° |
| 2026-04-13 20:29 | 59.51063 | 18.12464 | 36453 ft | 404 kts | 236° |
| 2026-04-13 20:29 | 59.47778 | 18.03502 | 36456 ft | 404 kts | 236° |
| 2026-04-13 20:30 | 59.44487 | 17.94558 | 36449 ft | 404 kts | 236° |
| 2026-04-13 20:30 | 59.41207 | 17.85682 | 36449 ft | 403 kts | 236° |
| 2026-04-13 20:31 | 59.37908 | 17.76788 | 36457 ft | 403 kts | 236° |
| 2026-04-13 20:31 | 59.34600 | 17.67894 | 36448 ft | 403 kts | 236° |
| 2026-04-13 20:32 | 59.31291 | 17.59037 | 36451 ft | 403 kts | 236° |
| 2026-04-13 20:32 | 59.27978 | 17.50205 | 36448 ft | 402 kts | 236° |
| 2026-04-13 20:33 | 59.24664 | 17.41396 | 36437 ft | 402 kts | 236° |
| 2026-04-13 20:33 | 59.21343 | 17.32608 | 36431 ft | 402 kts | 235° |
| 2026-04-13 20:34 | 59.18017 | 17.23835 | 36440 ft | 402 kts | 235° |
| 2026-04-13 20:34 | 59.14685 | 17.15084 | 36428 ft | 402 kts | 235° |
| 2026-04-13 20:35 | 59.11353 | 17.06357 | 36427 ft | 401 kts | 235° |
| 2026-04-13 20:35 | 59.08015 | 16.97660 | 36427 ft | 401 kts | 235° |
| 2026-04-13 20:36 | 59.04696 | 16.89033 | 36428 ft | 401 kts | 235° |
| 2026-04-13 20:36 | 59.01351 | 16.80372 | 36422 ft | 401 kts | 235° |
| 2026-04-13 20:37 | 58.98001 | 16.71731 | 36415 ft | 401 kts | 235° |
| 2026-04-13 20:37 | 58.94646 | 16.63114 | 36415 ft | 400 kts | 234° |
| 2026-04-13 20:38 | 58.91270 | 16.54550 | 36416 ft | 400 kts | 232° |
| 2026-04-13 20:38 | 58.87179 | 16.47201 | 36412 ft | 403 kts | 221° |
| 2026-04-13 20:39 | 58.82859 | 16.40323 | 36419 ft | 402 kts | 222° |
| 2026-04-13 20:39 | 58.78528 | 16.33473 | 36411 ft | 402 kts | 221° |
| 2026-04-13 20:40 | 58.74199 | 16.26650 | 36411 ft | 402 kts | 221° |
| 2026-04-13 20:40 | 58.69872 | 16.19846 | 36418 ft | 401 kts | 221° |
| 2026-04-13 20:41 | 58.65547 | 16.13077 | 36404 ft | 401 kts | 221° |
| 2026-04-13 20:41 | 58.61219 | 16.06319 | 36403 ft | 401 kts | 221° |
| 2026-04-13 20:42 | 58.57624 | 16.00725 | 36405 ft | 400 kts | 221° |
| 2026-04-13 20:42 | 58.53292 | 15.93998 | 36412 ft | 400 kts | 221° |
| 2026-04-13 20:43 | 58.48265 | 15.86230 | 36379 ft | 400 kts | 221° |
| 2026-04-13 20:43 | 58.44640 | 15.80640 | 36378 ft | 399 kts | 221° |
| 2026-04-13 20:44 | 58.40314 | 15.73994 | 36375 ft | 399 kts | 220° |
| 2026-04-13 20:44 | 58.35993 | 15.67380 | 36376 ft | 398 kts | 220° |
| 2026-04-13 20:45 | 58.31703 | 15.60827 | 36381 ft | 398 kts | 220° |
| 2026-04-13 20:46 | 58.25215 | 15.50965 | 36380 ft | 398 kts | 220° |
| 2026-04-13 20:46 | 58.20890 | 15.44415 | 36379 ft | 397 kts | 220° |
| 2026-04-13 20:47 | 58.16566 | 15.37888 | 36381 ft | 397 kts | 220° |
| 2026-04-13 20:47 | 58.12245 | 15.31384 | 36382 ft | 397 kts | 220° |
| 2026-04-13 20:48 | 58.07925 | 15.24906 | 36381 ft | 396 kts | 220° |
| 2026-04-13 20:48 | 58.03631 | 15.18488 | 36379 ft | 396 kts | 220° |
| 2026-04-13 20:49 | 57.99316 | 15.12055 | 36380 ft | 395 kts | 220° |
| 2026-04-13 20:49 | 57.94998 | 15.05638 | 36373 ft | 395 kts | 220° |
| 2026-04-13 20:50 | 57.90680 | 14.99244 | 36364 ft | 395 kts | 219° |
| 2026-04-13 20:50 | 57.86361 | 14.92869 | 36367 ft | 395 kts | 219° |
| 2026-04-13 20:51 | 57.82044 | 14.86515 | 36365 ft | 395 kts | 219° |
| 2026-04-13 20:51 | 57.77722 | 14.80174 | 36367 ft | 394 kts | 219° |
| 2026-04-13 20:52 | 57.73398 | 14.73850 | 36365 ft | 394 kts | 219° |
| 2026-04-13 20:52 | 57.69079 | 14.67553 | 36349 ft | 393 kts | 219° |
| 2026-04-13 20:53 | 57.64766 | 14.61283 | 36339 ft | 393 kts | 219° |
| 2026-04-13 20:53 | 57.60450 | 14.55029 | 36333 ft | 392 kts | 219° |
| 2026-04-13 20:54 | 57.56139 | 14.48800 | 36340 ft | 392 kts | 219° |
| 2026-04-13 20:54 | 57.51855 | 14.42634 | 36334 ft | 392 kts | 219° |
| 2026-04-13 20:55 | 57.47539 | 14.36435 | 36314 ft | 391 kts | 219° |
| 2026-04-13 20:55 | 57.43234 | 14.30271 | 36315 ft | 391 kts | 219° |
| 2026-04-13 20:56 | 57.38919 | 14.24118 | 36301 ft | 390 kts | 219° |
| 2026-04-13 20:56 | 57.34613 | 14.17992 | 36308 ft | 390 kts | 219° |
| 2026-04-13 20:57 | 57.30310 | 14.11885 | 36297 ft | 390 kts | 218° |
| 2026-04-13 20:57 | 57.26002 | 14.05796 | 36295 ft | 389 kts | 218° |
| 2026-04-13 20:58 | 57.21702 | 13.99734 | 36295 ft | 389 kts | 218° |
| 2026-04-13 20:58 | 57.17402 | 13.93688 | 36301 ft | 388 kts | 218° |
| 2026-04-13 20:59 | 57.13103 | 13.87664 | 36299 ft | 388 kts | 218° |
| 2026-04-13 20:59 | 57.08833 | 13.81698 | 36298 ft | 388 kts | 218° |
| 2026-04-13 21:00 | 57.04535 | 13.75711 | 36296 ft | 387 kts | 218° |
| 2026-04-13 21:00 | 57.00234 | 13.69740 | 36295 ft | 387 kts | 218° |
| 2026-04-13 21:01 | 56.95935 | 13.63789 | 36285 ft | 387 kts | 218° |
| 2026-04-13 21:01 | 56.91637 | 13.57854 | 36282 ft | 386 kts | 218° |
| 2026-04-13 21:02 | 56.87347 | 13.51945 | 36284 ft | 386 kts | 218° |
| 2026-04-13 21:02 | 56.83057 | 13.46058 | 36274 ft | 385 kts | 218° |
| 2026-04-13 21:03 | 56.78768 | 13.40192 | 36269 ft | 385 kts | 218° |
| 2026-04-13 21:03 | 56.74481 | 13.34343 | 36262 ft | 385 kts | 217° |
| 2026-04-13 21:04 | 56.70198 | 13.28514 | 36257 ft | 384 kts | 217° |
| 2026-04-13 21:04 | 56.65940 | 13.22737 | 36253 ft | 384 kts | 217° |
| 2026-04-13 21:05 | 56.61651 | 13.16938 | 36252 ft | 384 kts | 217° |
| 2026-04-13 21:05 | 56.57366 | 13.11159 | 36250 ft | 384 kts | 217° |
| 2026-04-13 21:06 | 56.53077 | 13.05393 | 36244 ft | 384 kts | 217° |
| 2026-04-13 21:06 | 56.48792 | 12.99645 | 36215 ft | 383 kts | 217° |
| 2026-04-13 21:07 | 56.45200 | 12.94842 | 36208 ft | 383 kts | 217° |
| 2026-04-13 21:07 | 56.40545 | 12.88633 | 36195 ft | 382 kts | 217° |
| 2026-04-13 21:08 | 56.36266 | 12.82946 | 36193 ft | 382 kts | 217° |
| 2026-04-13 21:08 | 56.31982 | 12.77266 | 36193 ft | 382 kts | 217° |
| 2026-04-13 21:09 | 56.27699 | 12.71601 | 36191 ft | 382 kts | 217° |
| 2026-04-13 21:09 | 56.23413 | 12.65951 | 36200 ft | 381 kts | 216° |
| 2026-04-13 21:10 | 56.19135 | 12.60328 | 36197 ft | 381 kts | 216° |
| 2026-04-13 21:10 | 56.15255 | 12.53869 | 36197 ft | 382 kts | 229° |
| 2026-04-13 21:11 | 56.11855 | 12.46558 | 36197 ft | 381 kts | 229° |
| 2026-04-13 21:11 | 56.08450 | 12.39271 | 36196 ft | 382 kts | 229° |
| 2026-04-13 21:12 | 56.05041 | 12.31986 | 36195 ft | 381 kts | 229° |
| 2026-04-13 21:12 | 56.01631 | 12.24731 | 36189 ft | 381 kts | 229° |
| 2026-04-13 21:13 | 55.98216 | 12.17475 | 36185 ft | 381 kts | 229° |
| 2026-04-13 21:13 | 55.94820 | 12.10279 | 36177 ft | 381 kts | 229° |
| 2026-04-13 21:14 | 55.91402 | 12.03065 | 36172 ft | 381 kts | 228° |
| 2026-04-13 21:14 | 55.87979 | 11.95860 | 36172 ft | 380 kts | 228° |
| 2026-04-13 21:15 | 55.84556 | 11.88671 | 36168 ft | 381 kts | 228° |
| 2026-04-13 21:15 | 55.81132 | 11.81504 | 36162 ft | 380 kts | 228° |
| 2026-04-13 21:16 | 55.77705 | 11.74353 | 36160 ft | 380 kts | 228° |
| 2026-04-13 21:16 | 55.74275 | 11.67220 | 36159 ft | 380 kts | 227° |
| 2026-04-13 21:17 | 55.70839 | 11.60092 | 36150 ft | 380 kts | 227° |
| 2026-04-13 21:17 | 55.67403 | 11.52984 | 36145 ft | 379 kts | 227° |
| 2026-04-13 21:18 | 55.63963 | 11.45890 | 36140 ft | 379 kts | 227° |
| 2026-04-13 21:18 | 55.60517 | 11.38806 | 36132 ft | 380 kts | 227° |
| 2026-04-13 21:19 | 55.57083 | 11.31772 | 36130 ft | 380 kts | 227° |
| 2026-04-13 21:19 | 55.53620 | 11.24699 | 36124 ft | 380 kts | 227° |
| 2026-04-13 21:20 | 55.50161 | 11.17647 | 36121 ft | 379 kts | 227° |
| 2026-04-13 21:20 | 55.46702 | 11.10624 | 36112 ft | 379 kts | 226° |
| 2026-04-13 21:21 | 55.43242 | 11.03619 | 36111 ft | 379 kts | 226° |
| 2026-04-13 21:21 | 55.40369 | 10.97817 | 36108 ft | 378 kts | 226° |
| 2026-04-13 21:22 | 55.36451 | 10.89925 | 36107 ft | 378 kts | 226° |
| 2026-04-13 21:22 | 55.32988 | 10.82969 | 36104 ft | 378 kts | 226° |
| 2026-04-13 21:23 | 55.29517 | 10.76021 | 36105 ft | 379 kts | 226° |
| 2026-04-13 21:23 | 55.26035 | 10.69073 | 36104 ft | 379 kts | 226° |
| 2026-04-13 21:24 | 55.22567 | 10.62170 | 36102 ft | 380 kts | 226° |
| 2026-04-13 21:24 | 55.19062 | 10.55210 | 36095 ft | 381 kts | 226° |
| 2026-04-13 21:25 | 55.15544 | 10.48248 | 36089 ft | 381 kts | 225° |
| 2026-04-13 21:25 | 55.12024 | 10.41302 | 36080 ft | 381 kts | 225° |
| 2026-04-13 21:26 | 55.08502 | 10.34374 | 36076 ft | 381 kts | 225° |
| 2026-04-13 21:26 | 55.04979 | 10.27461 | 36075 ft | 381 kts | 225° |
| 2026-04-13 21:27 | 55.01445 | 10.20544 | 36074 ft | 382 kts | 225° |
| 2026-04-13 21:27 | 54.97925 | 10.13678 | 36076 ft | 382 kts | 225° |
| 2026-04-13 21:28 | 54.94375 | 10.06775 | 36078 ft | 382 kts | 225° |
| 2026-04-13 21:28 | 54.90824 | 9.99888 | 36077 ft | 382 kts | 225° |
| 2026-04-13 21:29 | 54.87369 | 9.92853 | 36081 ft | 382 kts | 226° |
| 2026-04-13 21:29 | 54.83917 | 9.85833 | 36079 ft | 383 kts | 227° |
| 2026-04-13 21:30 | 54.80828 | 9.78363 | 36074 ft | 384 kts | 231° |
| 2026-04-13 21:30 | 54.77722 | 9.70828 | 36067 ft | 384 kts | 231° |
| 2026-04-13 21:31 | 54.74631 | 9.63276 | 36056 ft | 384 kts | 231° |
| 2026-04-13 21:31 | 54.72044 | 9.57009 | 36038 ft | 385 kts | 230° |
| 2026-04-13 21:32 | 54.68930 | 9.49467 | 36033 ft | 385 kts | 230° |
| 2026-04-13 21:32 | 54.65807 | 9.41933 | 36031 ft | 386 kts | 230° |
| 2026-04-13 21:33 | 54.62678 | 9.34403 | 36036 ft | 386 kts | 230° |
| 2026-04-13 21:33 | 54.59544 | 9.26888 | 36032 ft | 386 kts | 230° |
| 2026-04-13 21:34 | 54.54818 | 9.15598 | 36029 ft | 388 kts | 230° |
| 2026-04-13 21:34 | 54.51649 | 9.08057 | 36030 ft | 388 kts | 230° |
| 2026-04-13 21:35 | 54.48484 | 9.00549 | 36025 ft | 388 kts | 230° |
| 2026-04-13 21:36 | 54.43726 | 8.89302 | 36022 ft | 388 kts | 230° |
| 2026-04-13 21:36 | 54.40547 | 8.81819 | 36017 ft | 388 kts | 230° |
| 2026-04-13 21:37 | 54.37364 | 8.74349 | 36017 ft | 388 kts | 230° |
| 2026-04-13 21:37 | 54.34176 | 8.66885 | 36016 ft | 388 kts | 230° |
| 2026-04-13 21:38 | 54.30984 | 8.59432 | 36013 ft | 388 kts | 230° |
| 2026-04-13 21:38 | 54.27789 | 8.52000 | 36011 ft | 388 kts | 229° |
| 2026-04-13 21:39 | 54.24606 | 8.44618 | 36007 ft | 389 kts | 229° |
| 2026-04-13 21:39 | 54.21133 | 8.37585 | 36004 ft | 385 kts | 220° |
| 2026-04-13 21:40 | 54.17240 | 8.31293 | 36011 ft | 386 kts | 220° |
| 2026-04-13 21:40 | 54.13352 | 8.24981 | 36012 ft | 385 kts | 220° |
| 2026-04-13 21:41 | 54.09460 | 8.18706 | 36013 ft | 385 kts | 220° |
| 2026-04-13 21:41 | 54.05562 | 8.12412 | 36006 ft | 387 kts | 220° |
| 2026-04-13 21:42 | 54.01640 | 8.06098 | 36005 ft | 387 kts | 220° |
| 2026-04-13 21:42 | 53.97723 | 7.99813 | 36014 ft | 387 kts | 220° |
| 2026-04-13 21:43 | 53.93837 | 7.93597 | 36012 ft | 386 kts | 220° |
| 2026-04-13 21:43 | 53.89924 | 7.87351 | 36009 ft | 386 kts | 220° |
| 2026-04-13 21:44 | 53.86003 | 7.81110 | 36004 ft | 386 kts | 220° |
| 2026-04-13 21:44 | 53.82081 | 7.74887 | 36004 ft | 386 kts | 220° |
| 2026-04-13 21:45 | 53.78155 | 7.68676 | 36003 ft | 386 kts | 219° |
| 2026-04-13 21:45 | 53.74229 | 7.62478 | 36002 ft | 386 kts | 219° |
| 2026-04-13 21:46 | 53.70302 | 7.56294 | 36002 ft | 386 kts | 219° |
| 2026-04-13 21:46 | 53.66367 | 7.50114 | 36003 ft | 387 kts | 219° |
| 2026-04-13 21:47 | 53.62412 | 7.43923 | 36001 ft | 388 kts | 219° |
| 2026-04-13 21:47 | 53.58615 | 7.37994 | 36001 ft | 387 kts | 219° |
| 2026-04-13 21:48 | 53.54664 | 7.31841 | 36023 ft | 387 kts | 219° |
| 2026-04-13 21:48 | 53.50715 | 7.25703 | 36028 ft | 387 kts | 219° |
| 2026-04-13 21:49 | 53.46789 | 7.19619 | 36029 ft | 387 kts | 219° |
| 2026-04-13 21:49 | 53.42823 | 7.13491 | 36024 ft | 388 kts | 219° |
| 2026-04-13 21:50 | 53.38845 | 7.07363 | 36030 ft | 389 kts | 219° |
| 2026-04-13 21:50 | 53.34848 | 7.01220 | 36026 ft | 389 kts | 219° |
| 2026-04-13 21:51 | 53.31151 | 6.94590 | 36024 ft | 391 kts | 225° |
| 2026-04-13 21:51 | 53.27551 | 6.87773 | 36023 ft | 391 kts | 225° |
| 2026-04-13 21:52 | 53.23973 | 6.80963 | 36025 ft | 390 kts | 225° |
| 2026-04-13 21:52 | 53.20405 | 6.74209 | 36030 ft | 390 kts | 225° |
| 2026-04-13 21:53 | 53.16814 | 6.67427 | 36029 ft | 390 kts | 225° |
| 2026-04-13 21:53 | 53.13287 | 6.60536 | 36031 ft | 391 kts | 226° |
| 2026-04-13 21:54 | 53.09750 | 6.53646 | 36030 ft | 391 kts | 226° |
| 2026-04-13 21:54 | 53.06217 | 6.46758 | 36029 ft | 392 kts | 226° |
| 2026-04-13 21:55 | 53.02673 | 6.39879 | 36030 ft | 392 kts | 226° |
| 2026-04-13 21:55 | 52.99123 | 6.33004 | 36025 ft | 392 kts | 226° |
| 2026-04-13 21:56 | 52.95565 | 6.26129 | 36028 ft | 392 kts | 226° |
| 2026-04-13 21:56 | 52.92004 | 6.19267 | 36029 ft | 393 kts | 226° |
| 2026-04-13 21:57 | 52.88435 | 6.12410 | 36026 ft | 393 kts | 226° |
| 2026-04-13 21:57 | 52.84858 | 6.05563 | 36027 ft | 393 kts | 226° |
| 2026-04-13 21:58 | 52.81298 | 5.98759 | 36027 ft | 395 kts | 226° |
| 2026-04-13 21:58 | 52.77699 | 5.91901 | 36030 ft | 394 kts | 226° |
| 2026-04-13 21:59 | 52.74101 | 5.85064 | 36030 ft | 394 kts | 226° |
| 2026-04-13 21:59 | 52.70498 | 5.78241 | 36034 ft | 394 kts | 226° |
| 2026-04-13 22:00 | 52.66887 | 5.71431 | 36028 ft | 394 kts | 226° |
| 2026-04-13 22:00 | 52.63271 | 5.64625 | 36030 ft | 394 kts | 226° |
| 2026-04-13 22:01 | 52.59737 | 5.57991 | 36034 ft | 394 kts | 226° |
| 2026-04-13 22:01 | 52.56115 | 5.51211 | 36027 ft | 395 kts | 226° |
| 2026-04-13 22:02 | 52.52487 | 5.44436 | 36028 ft | 395 kts | 226° |
| 2026-04-13 22:02 | 52.48857 | 5.37681 | 36019 ft | 395 kts | 226° |
| 2026-04-13 22:03 | 52.45241 | 5.30964 | 36022 ft | 396 kts | 227° |
| 2026-04-13 22:03 | 52.41597 | 5.24205 | 36032 ft | 396 kts | 227° |
| 2026-04-13 22:04 | 52.37935 | 5.17439 | 36035 ft | 397 kts | 227° |
| 2026-04-13 22:04 | 52.34496 | 5.10360 | 36045 ft | 399 kts | 235° |
| 2026-04-13 22:05 | 52.32041 | 5.02176 | 36052 ft | 404 kts | 248° |
| 2026-04-13 22:05 | 52.30256 | 4.93469 | 36057 ft | 404 kts | 249° |
| 2026-04-13 22:06 | 52.28472 | 4.84822 | 36056 ft | 404 kts | 249° |
| 2026-04-13 22:06 | 52.26675 | 4.76119 | 36058 ft | 405 kts | 249° |
| 2026-04-13 22:07 | 52.24866 | 4.67414 | 36055 ft | 405 kts | 249° |
| 2026-04-13 22:07 | 52.23052 | 4.58719 | 36052 ft | 405 kts | 249° |
| 2026-04-13 22:08 | 52.21239 | 4.50073 | 36045 ft | 406 kts | 249° |
| 2026-04-13 22:08 | 52.19411 | 4.41376 | 36043 ft | 406 kts | 249° |
| 2026-04-13 22:09 | 52.17573 | 4.32682 | 36041 ft | 406 kts | 249° |
| 2026-04-13 22:09 | 52.15730 | 4.24001 | 36043 ft | 405 kts | 249° |
| 2026-04-13 22:10 | 52.13883 | 4.15338 | 36047 ft | 405 kts | 249° |
| 2026-04-13 22:10 | 52.12032 | 4.06688 | 36055 ft | 405 kts | 249° |
| 2026-04-13 22:11 | 52.10188 | 3.98107 | 36056 ft | 404 kts | 249° |
| 2026-04-13 22:11 | 52.08328 | 3.89490 | 36053 ft | 404 kts | 249° |
| 2026-04-13 22:12 | 52.06461 | 3.80885 | 36050 ft | 403 kts | 249° |
| 2026-04-13 22:12 | 52.04591 | 3.72303 | 36055 ft | 403 kts | 249° |
| 2026-04-13 22:13 | 52.02718 | 3.63734 | 36053 ft | 402 kts | 249° |
| 2026-04-13 22:13 | 52.01093 | 3.55109 | 36055 ft | 403 kts | 256° |
| 2026-04-13 22:14 | 51.99980 | 3.46192 | 36053 ft | 403 kts | 257° |
| 2026-04-13 22:14 | 51.98863 | 3.37283 | 36060 ft | 403 kts | 257° |
| 2026-04-13 22:15 | 51.97739 | 3.28385 | 36060 ft | 402 kts | 257° |
| 2026-04-13 22:15 | 51.96611 | 3.19501 | 36062 ft | 402 kts | 256° |
| 2026-04-13 22:16 | 51.95484 | 3.10683 | 36064 ft | 402 kts | 257° |
| 2026-04-13 22:16 | 51.94346 | 3.01826 | 36069 ft | 400 kts | 256° |
| 2026-04-13 22:17 | 51.93209 | 2.93050 | 36062 ft | 397 kts | 256° |
| 2026-04-13 22:17 | 51.91688 | 2.84533 | 36062 ft | 392 kts | 245° |
| 2026-04-13 22:18 | 51.89451 | 2.76492 | 36061 ft | 391 kts | 246° |
| 2026-04-13 22:18 | 51.87320 | 2.68417 | 36064 ft | 389 kts | 246° |
| 2026-04-13 22:19 | 51.85164 | 2.60463 | 36064 ft | 388 kts | 246° |
| 2026-04-13 22:19 | 51.83007 | 2.52469 | 36066 ft | 387 kts | 246° |
| 2026-04-13 22:20 | 51.80846 | 2.44510 | 36066 ft | 386 kts | 246° |
| 2026-04-13 22:20 | 51.78685 | 2.36569 | 36065 ft | 386 kts | 246° |
| 2026-04-13 22:21 | 51.76525 | 2.28657 | 36067 ft | 385 kts | 246° |
| 2026-04-13 22:21 | 51.74362 | 2.20765 | 36069 ft | 384 kts | 245° |
| 2026-04-13 22:22 | 51.72212 | 2.12948 | 36069 ft | 383 kts | 245° |
| 2026-04-13 22:22 | 51.70046 | 2.05099 | 36068 ft | 383 kts | 245° |
| 2026-04-13 22:23 | 51.67880 | 1.97271 | 36069 ft | 382 kts | 245° |
| 2026-04-13 22:23 | 51.65713 | 1.89468 | 36069 ft | 381 kts | 245° |
| 2026-04-13 22:24 | 51.63543 | 1.81683 | 36068 ft | 381 kts | 245° |
| 2026-04-13 22:24 | 51.61378 | 1.73943 | 36069 ft | 380 kts | 245° |
| 2026-04-13 22:25 | 51.59218 | 1.66245 | 36068 ft | 380 kts | 245° |
| 2026-04-13 22:25 | 51.57043 | 1.58514 | 36070 ft | 379 kts | 245° |
| 2026-04-13 22:26 | 51.54864 | 1.50796 | 36072 ft | 379 kts | 245° |
| 2026-04-13 22:26 | 51.52681 | 1.43094 | 36068 ft | 379 kts | 245° |
| 2026-04-13 22:27 | 51.50495 | 1.35409 | 36069 ft | 378 kts | 245° |
| 2026-04-13 22:27 | 51.48320 | 1.27778 | 36068 ft | 378 kts | 245° |
| 2026-04-13 22:28 | 51.46128 | 1.20112 | 36067 ft | 378 kts | 245° |
| 2026-04-13 22:28 | 51.43931 | 1.12461 | 36065 ft | 378 kts | 244° |
| 2026-04-13 22:29 | 51.41728 | 1.04814 | 36066 ft | 378 kts | 245° |
| 2026-04-13 22:29 | 51.39524 | 0.97180 | 36067 ft | 378 kts | 244° |
| 2026-04-13 22:30 | 51.37314 | 0.89552 | 36066 ft | 378 kts | 244° |
| 2026-04-13 22:30 | 51.35111 | 0.81977 | 36065 ft | 378 kts | 244° |
| 2026-04-13 22:31 | 51.32887 | 0.74356 | 36064 ft | 378 kts | 244° |
| 2026-04-13 22:31 | 51.30660 | 0.66740 | 36013 ft | 378 kts | 244° |
| 2026-04-13 22:32 | 51.28425 | 0.59125 | 35996 ft | 378 kts | 244° |
| 2026-04-13 22:32 | 51.26186 | 0.51524 | 35973 ft | 379 kts | 244° |
| 2026-04-13 22:33 | 51.23938 | 0.43915 | 35974 ft | 379 kts | 244° |
| 2026-04-13 22:33 | 51.21701 | 0.36362 | 35973 ft | 379 kts | 244° |
| 2026-04-13 22:34 | 51.17178 | 0.21172 | 35992 ft | 379 kts | 244° |
| 2026-04-13 22:35 | 51.14923 | 0.13640 | 36008 ft | 379 kts | 244° |
| 2026-04-13 22:35 | 51.12649 | 0.06057 | 36079 ft | 380 kts | 244° |
| 2026-04-13 22:36 | 51.10368 | -0.01518 | 36080 ft | 380 kts | 244° |
| 2026-04-13 22:36 | 51.08079 | -0.09102 | 36082 ft | 380 kts | 244° |
| 2026-04-13 22:37 | 51.05800 | -0.16621 | 36082 ft | 380 kts | 244° |
| 2026-04-13 22:37 | 51.03498 | -0.24200 | 36082 ft | 381 kts | 243° |
| 2026-04-13 22:38 | 51.01216 | -0.31687 | 36083 ft | 381 kts | 243° |
| 2026-04-13 22:38 | 50.98945 | -0.39115 | 36079 ft | 381 kts | 243° |
| 2026-04-13 22:39 | 50.96648 | -0.46604 | 35849 ft | 374 kts | 243° |
| 2026-04-13 22:39 | 50.95519 | -0.50279 | 35389 ft | 367 kts | 243° |
| 2026-04-13 22:39 | 50.94413 | -0.53872 | 34966 ft | 359 kts | 243° |
| 2026-04-13 22:39 | 50.93328 | -0.57390 | 34557 ft | 352 kts | 243° |
| 2026-04-13 22:40 | 50.92621 | -0.59683 | 34282 ft | 348 kts | 243° |
| 2026-04-13 22:40 | 50.91563 | -0.63104 | 33837 ft | 343 kts | 242° |
| 2026-04-13 22:40 | 50.90523 | -0.66469 | 33396 ft | 337 kts | 242° |
| 2026-04-13 22:40 | 50.89510 | -0.69735 | 32987 ft | 332 kts | 242° |
| 2026-04-13 22:41 | 50.88175 | -0.74036 | 32457 ft | 326 kts | 242° |
| 2026-04-13 22:41 | 50.87181 | -0.77236 | 32033 ft | 323 kts | 242° |
| 2026-04-13 22:41 | 50.86195 | -0.80408 | 31612 ft | 319 kts | 241° |
| 2026-04-13 22:41 | 50.85215 | -0.83543 | 31205 ft | 316 kts | 241° |
| 2026-04-13 22:42 | 50.84574 | -0.85606 | 30940 ft | 315 kts | 241° |
| 2026-04-13 22:42 | 50.83530 | -0.88623 | 30535 ft | 311 kts | 236° |
| 2026-04-13 22:42 | 50.82292 | -0.91404 | 30113 ft | 308 kts | 230° |
| 2026-04-13 22:42 | 50.80883 | -0.93919 | 29711 ft | 303 kts | 225° |
| 2026-04-13 22:43 | 50.78807 | -0.96801 | 29266 ft | 297 kts | 218° |
| 2026-04-13 22:43 | 50.77666 | -0.98068 | 29030 ft | 296 kts | 214° |
| 2026-04-13 22:43 | 50.75945 | -0.99744 | 28679 ft | 293 kts | 213° |
| 2026-04-13 22:43 | 50.74215 | -1.01432 | 28332 ft | 291 kts | 213° |
| 2026-04-13 22:44 | 50.72499 | -1.03116 | 27980 ft | 290 kts | 213° |
| 2026-04-13 22:44 | 50.70795 | -1.04775 | 27849 ft | 283 kts | 213° |
| 2026-04-13 22:44 | 50.69144 | -1.06376 | 27842 ft | 274 kts | 213° |
| 2026-04-13 22:44 | 50.67544 | -1.07932 | 27743 ft | 269 kts | 213° |
| 2026-04-13 22:45 | 50.65949 | -1.09489 | 27423 ft | 271 kts | 213° |
| 2026-04-13 22:45 | 50.64332 | -1.11058 | 27061 ft | 275 kts | 213° |
| 2026-04-13 22:45 | 50.62695 | -1.12647 | 26690 ft | 278 kts | 213° |
| 2026-04-13 22:45 | 50.61039 | -1.14251 | 26319 ft | 281 kts | 213° |
| 2026-04-13 22:46 | 50.59367 | -1.15869 | 25949 ft | 283 kts | 213° |
| 2026-04-13 22:46 | 50.57704 | -1.17481 | 25582 ft | 286 kts | 213° |
| 2026-04-13 22:46 | 50.56001 | -1.19124 | 25196 ft | 288 kts | 212° |
| 2026-04-13 22:46 | 50.54290 | -1.20779 | 24819 ft | 290 kts | 212° |
| 2026-04-13 22:47 | 50.52562 | -1.22446 | 24436 ft | 292 kts | 213° |
| 2026-04-13 22:47 | 50.50825 | -1.24120 | 24053 ft | 294 kts | 212° |
| 2026-04-13 22:47 | 50.49076 | -1.25809 | 23653 ft | 296 kts | 212° |
| 2026-04-13 22:47 | 50.47313 | -1.27501 | 23227 ft | 297 kts | 212° |
| 2026-04-13 22:48 | 50.45551 | -1.29198 | 22837 ft | 297 kts | 212° |
| 2026-04-13 22:48 | 50.43813 | -1.30867 | 22457 ft | 297 kts | 212° |
| 2026-04-13 22:48 | 50.42051 | -1.32558 | 22055 ft | 297 kts | 212° |
| 2026-04-13 22:48 | 50.40286 | -1.34253 | 21666 ft | 298 kts | 212° |
| 2026-04-13 22:49 | 50.38516 | -1.35946 | 21278 ft | 298 kts | 212° |
| 2026-04-13 22:49 | 50.36744 | -1.37648 | 20890 ft | 299 kts | 212° |
| 2026-04-13 22:49 | 50.34964 | -1.39346 | 20491 ft | 300 kts | 212° |
| 2026-04-13 22:49 | 50.33184 | -1.41051 | 20096 ft | 301 kts | 211° |
| 2026-04-13 22:50 | 50.31395 | -1.42753 | 19701 ft | 301 kts | 211° |
| 2026-04-13 22:50 | 50.29607 | -1.44464 | 19308 ft | 302 kts | 211° |
| 2026-04-13 22:50 | 50.27836 | -1.46150 | 18913 ft | 302 kts | 211° |
| 2026-04-13 22:50 | 50.26046 | -1.47855 | 18518 ft | 302 kts | 211° |
| 2026-04-13 22:51 | 50.24252 | -1.49563 | 18099 ft | 302 kts | 211° |
| 2026-04-13 22:51 | 50.22464 | -1.51260 | 17700 ft | 300 kts | 211° |
| 2026-04-13 22:51 | 50.20686 | -1.52953 | 17316 ft | 298 kts | 211° |
| 2026-04-13 22:51 | 50.18916 | -1.54627 | 16932 ft | 297 kts | 211° |
| 2026-04-13 22:52 | 50.17152 | -1.56306 | 16547 ft | 297 kts | 211° |
| 2026-04-13 22:52 | 50.15387 | -1.57972 | 16169 ft | 296 kts | 211° |
| 2026-04-13 22:52 | 50.13627 | -1.59643 | 15783 ft | 296 kts | 211° |
| 2026-04-13 22:52 | 50.11864 | -1.61306 | 15394 ft | 296 kts | 212° |
| 2026-04-13 22:53 | 50.10126 | -1.62950 | 15017 ft | 296 kts | 211° |
| 2026-04-13 22:53 | 50.08365 | -1.64614 | 14636 ft | 293 kts | 212° |
| 2026-04-13 22:53 | 50.06661 | -1.66214 | 14287 ft | 280 kts | 212° |
| 2026-04-13 22:53 | 50.05031 | -1.67751 | 13967 ft | 269 kts | 212° |
| 2026-04-13 22:54 | 50.03450 | -1.69234 | 13625 ft | 262 kts | 212° |
| 2026-04-13 22:54 | 50.01914 | -1.70686 | 13306 ft | 255 kts | 212° |
| 2026-04-13 22:54 | 50.00409 | -1.72103 | 12972 ft | 251 kts | 212° |
| 2026-04-13 22:54 | 49.98926 | -1.73495 | 12667 ft | 247 kts | 212° |
| 2026-04-13 22:55 | 49.97482 | -1.74855 | 12359 ft | 245 kts | 212° |
| 2026-04-13 22:55 | 49.96026 | -1.76217 | 12043 ft | 244 kts | 212° |
| 2026-04-13 22:55 | 49.94579 | -1.77577 | 11728 ft | 243 kts | 212° |
| 2026-04-13 22:55 | 49.93135 | -1.78929 | 11409 ft | 242 kts | 212° |
| 2026-04-13 22:56 | 49.91692 | -1.80279 | 11095 ft | 242 kts | 212° |
| 2026-04-13 22:56 | 49.90254 | -1.81629 | 10779 ft | 242 kts | 212° |
| 2026-04-13 22:56 | 49.88811 | -1.82973 | 10462 ft | 242 kts | 212° |
| 2026-04-13 22:56 | 49.87369 | -1.84324 | 10145 ft | 242 kts | 212° |
| 2026-04-13 22:57 | 49.85924 | -1.85672 | 9810 ft | 243 kts | 212° |
| 2026-04-13 22:57 | 49.84495 | -1.87004 | 9492 ft | 242 kts | 212° |
| 2026-04-13 22:57 | 49.83054 | -1.88350 | 9170 ft | 242 kts | 212° |
| 2026-04-13 22:57 | 49.81612 | -1.89689 | 8856 ft | 241 kts | 212° |
| 2026-04-13 22:58 | 49.80174 | -1.91033 | 8541 ft | 241 kts | 212° |
| 2026-04-13 22:58 | 49.78733 | -1.92370 | 8225 ft | 242 kts | 212° |
| 2026-04-13 22:58 | 49.77291 | -1.93712 | 7909 ft | 242 kts | 212° |
| 2026-04-13 22:58 | 49.75862 | -1.95040 | 7598 ft | 236 kts | 212° |
| 2026-04-13 22:59 | 49.74386 | -1.96034 | 7297 ft | 231 kts | 192° |
| 2026-04-13 22:59 | 49.72815 | -1.95908 | 7000 ft | 230 kts | 167° |
| 2026-04-13 22:59 | 49.71437 | -1.94673 | 6702 ft | 232 kts | 139° |
| 2026-04-13 22:59 | 49.70574 | -1.92573 | 6364 ft | 236 kts | 110° |
| 2026-04-13 23:00 | 49.70217 | -1.90079 | 5837 ft | 243 kts | 101° |
| 2026-04-13 23:00 | 49.69918 | -1.87496 | 5173 ft | 245 kts | 100° |
| 2026-04-13 23:00 | 49.69630 | -1.84906 | 4514 ft | 245 kts | 100° |
| 2026-04-13 23:00 | 49.69314 | -1.82336 | 4018 ft | 240 kts | 101° |
| 2026-04-13 23:01 | 49.69026 | -1.79862 | 3667 ft | 229 kts | 101° |
| 2026-04-13 23:01 | 49.68745 | -1.77524 | 3359 ft | 220 kts | 101° |
| 2026-04-13 23:01 | 49.68465 | -1.75238 | 3046 ft | 213 kts | 101° |
| 2026-04-13 23:01 | 49.68194 | -1.73017 | 2777 ft | 204 kts | 101° |
| 2026-04-13 23:02 | 49.67954 | -1.70976 | 2498 ft | 184 kts | 101° |
| 2026-04-13 23:02 | 49.67723 | -1.69165 | 2265 ft | 155 kts | 101° |
| 2026-04-13 23:02 | 49.67543 | -1.67667 | 2060 ft | 134 kts | 102° |
| 2026-04-13 23:02 | 49.67377 | -1.66288 | 1874 ft | 128 kts | 101° |
| 2026-04-13 23:03 | 49.67212 | -1.64957 | 1701 ft | 125 kts | 101° |
| 2026-04-13 23:03 | 49.67055 | -1.63646 | 1526 ft | 123 kts | 102° |
| 2026-04-13 23:03 | 49.66900 | -1.62374 | 1356 ft | 122 kts | 102° |
| 2026-04-13 23:03 | 49.66744 | -1.61099 | 1182 ft | 119 kts | 103° |
| 2026-04-13 23:04 | 49.66590 | -1.59848 | 1025 ft | 117 kts | 103° |
| 2026-04-13 23:04 | 49.66441 | -1.58630 | 863 ft | 114 kts | 104° |
| 2026-04-13 23:04 | 49.66272 | -1.57489 | 856 ft | 105 kts | 108° |
| 2026-04-13 23:04 | 49.66131 | -1.56382 | 841 ft | 105 kts | 103° |
| 2026-04-13 23:05 | 49.66030 | -1.55277 | 853 ft | 105 kts | 100° |
| 2026-04-13 23:05 | 49.65909 | -1.54174 | 869 ft | 104 kts | 103° |
| 2026-04-13 23:05 | 49.65758 | -1.53079 | 874 ft | 105 kts | 103° |
| 2026-04-13 23:05 | 49.65634 | -1.51969 | 932 ft | 108 kts | 101° |
| 2026-04-13 23:06 | 49.65475 | -1.50803 | 828 ft | 112 kts | 105° |
| 2026-04-13 23:06 | 49.65344 | -1.49651 | 622 ft | 105 kts | 100° |
| 2026-04-13 23:06 | 49.65216 | -1.48637 | 469 ft | 86 kts | 103° |
| 2026-04-13 23:06 | 49.65123 | -1.47907 | 451 ft | 39 kts | 101° |
| 2026-04-13 23:07 | 49.65091 | -1.47638 | 448 ft | 20 kts | 101° |
| 2026-04-13 23:07 | 49.65000 | -1.47547 | 446 ft | 11 kts | 187° |
| 2026-04-13 23:07 | 49.64915 | -1.47564 | 437 ft | 13 kts | 188° |
| 2026-04-13 23:07 | 49.64839 | -1.47581 | 446 ft | 10 kts | 188° |
| 2026-04-13 23:08 | 49.64801 | -1.47607 | 436 ft | 6 kts | 233° |
| 2026-04-13 23:08 | 49.64779 | -1.47645 | 446 ft | 4 kts | 195° |
| 2026-04-13 23:08 | 49.64753 | -1.47630 | 446 ft | 0 kts | 152° |
| 2026-04-13 23:08 | 49.64739 | -1.47599 | 436 ft | 5 kts | 75° |
| 2026-04-13 23:09 | 49.64742 | -1.47588 | 440 ft | 0 kts | 63° |